createdAt,value
2023-03-17T00:01:55.986Z,3.91
2023-03-17T00:04:24.631Z,3.86
2023-03-17T00:06:52.827Z,3.82
2023-03-17T00:09:20.886Z,3.82
2023-03-17T00:11:48.360Z,3.82
2023-03-17T00:14:15.330Z,3.79
2023-03-17T00:16:44.754Z,3.75
2023-03-17T00:19:35.271Z,3.64
2023-03-17T00:22:02.919Z,3.66
2023-03-17T00:24:30.284Z,3.61
2023-03-17T00:26:57.200Z,3.59
2023-03-17T00:29:24.219Z,3.58
2023-03-17T00:31:51.262Z,3.60
2023-03-17T00:34:23.457Z,3.53
2023-03-17T00:36:51.694Z,3.51
2023-03-17T00:39:18.936Z,3.51
2023-03-17T00:44:12.682Z,3.43
2023-03-17T00:46:41.577Z,3.37
2023-03-17T00:49:11.756Z,3.32
2023-03-17T00:51:40.368Z,3.31
2023-03-17T00:54:08.030Z,3.21
2023-03-17T00:56:34.863Z,3.20
2023-03-17T00:59:01.668Z,3.18
2023-03-17T01:01:28.493Z,3.15
2023-03-17T01:03:55.219Z,3.20
2023-03-17T01:06:22.131Z,3.16
2023-03-17T01:08:49.328Z,3.13
2023-03-17T01:11:19.111Z,3.09
2023-03-17T01:13:47.511Z,3.14
2023-03-17T01:16:15.590Z,3.09
2023-03-17T01:18:43.611Z,3.12
2023-03-17T01:21:10.503Z,3.11
2023-03-17T01:23:38.017Z,3.09
2023-03-17T01:26:05.256Z,3.05
2023-03-17T01:28:32.640Z,3.04
2023-03-17T01:30:59.522Z,2.94
2023-03-17T01:33:26.503Z,2.95
2023-03-17T01:35:53.353Z,2.91
2023-03-17T01:38:20.137Z,2.91
2023-03-17T01:40:51.078Z,2.84
2023-03-17T01:43:25.038Z,2.83
2023-03-17T01:46:13.483Z,2.74
2023-03-17T01:49:15.646Z,2.72
2023-03-17T01:51:47.403Z,2.76
2023-03-17T01:54:34.842Z,2.75
2023-03-17T01:57:09.348Z,2.72
2023-03-17T01:59:43.755Z,2.69
2023-03-17T02:02:14.796Z,2.70
2023-03-17T02:04:41.907Z,2.66
2023-03-17T02:07:10.160Z,2.62
2023-03-17T02:09:41.395Z,2.59
2023-03-17T02:12:09.883Z,2.51
2023-03-17T02:14:36.695Z,2.45
2023-03-17T02:17:04.004Z,2.49
2023-03-17T02:19:30.965Z,2.45
2023-03-17T02:21:59.319Z,2.41
2023-03-17T02:24:53.321Z,2.35
2023-03-17T02:27:23.094Z,2.13
2023-03-17T02:29:50.906Z,2.25
2023-03-17T02:32:18.960Z,2.26
2023-03-17T02:34:47.519Z,2.27
2023-03-17T02:37:15.245Z,2.21
2023-03-17T02:39:42.663Z,2.17
2023-03-17T02:42:10.300Z,2.14
2023-03-17T02:44:37.380Z,2.10
2023-03-17T02:47:04.732Z,2.10
2023-03-17T02:49:32.828Z,2.04
2023-03-17T02:51:59.598Z,2.02
2023-03-17T02:54:26.721Z,2.01
2023-03-17T02:56:53.538Z,2.05
2023-03-17T02:59:20.237Z,2.10
2023-03-17T03:01:48.624Z,2.06
2023-03-17T03:04:15.417Z,2.04
2023-03-17T03:06:42.653Z,2.03
2023-03-17T03:09:11.809Z,1.97
2023-03-17T03:11:41.542Z,1.92
2023-03-17T03:14:08.784Z,1.86
2023-03-17T03:16:35.638Z,1.87
2023-03-17T03:19:02.423Z,1.84
2023-03-17T03:21:29.532Z,1.90
2023-03-17T03:23:56.667Z,1.85
2023-03-17T03:26:23.531Z,1.89
2023-03-17T03:28:50.719Z,1.85
2023-03-17T03:31:17.677Z,1.79
2023-03-17T03:33:45.875Z,1.80
2023-03-17T03:36:13.483Z,1.73
2023-03-17T03:38:41.681Z,1.69
2023-03-17T03:41:09.172Z,1.70
2023-03-17T03:43:36.365Z,1.77
2023-03-17T03:46:04.567Z,1.71
2023-03-17T03:48:31.440Z,1.73
2023-03-17T03:50:59.657Z,1.59
2023-03-17T03:53:27.158Z,1.59
2023-03-17T03:55:54.546Z,1.50
2023-03-17T03:58:21.639Z,1.47
2023-03-17T04:00:48.508Z,1.40
2023-03-17T04:03:16.074Z,1.34
2023-03-17T04:05:43.932Z,1.33
2023-03-17T04:08:11.436Z,1.39
2023-03-17T04:10:38.227Z,1.43
2023-03-17T04:13:05.039Z,1.33
2023-03-17T04:15:33.096Z,1.31
2023-03-17T04:17:59.898Z,1.24
2023-03-17T04:20:26.738Z,1.18
2023-03-17T04:22:53.476Z,1.12
2023-03-17T04:25:20.312Z,1.11
2023-03-17T04:27:47.186Z,1.13
2023-03-17T04:30:14.809Z,1.06
2023-03-17T04:32:41.873Z,1.11
2023-03-17T04:35:13.810Z,1.00
2023-03-17T04:37:40.564Z,0.95
2023-03-17T04:40:12.681Z,0.92
2023-03-17T04:42:40.713Z,0.83
2023-03-17T04:45:09.628Z,0.87
2023-03-17T04:47:37.389Z,0.85
2023-03-17T04:50:05.407Z,0.87
2023-03-17T04:52:32.133Z,0.85
2023-03-17T04:54:58.856Z,0.91
2023-03-17T04:57:25.597Z,0.85
2023-03-17T04:59:53.317Z,0.87
2023-03-17T05:02:20.329Z,0.81
2023-03-17T05:04:48.711Z,0.83
2023-03-17T05:07:15.845Z,0.94
2023-03-17T05:09:42.647Z,0.94
2023-03-17T05:12:10.579Z,0.88
2023-03-17T05:14:37.730Z,0.83
2023-03-17T05:17:04.657Z,0.87
2023-03-17T05:19:31.444Z,0.93
2023-03-17T05:21:58.232Z,1.05
2023-03-17T05:24:24.964Z,1.05
2023-03-17T05:26:51.650Z,1.13
2023-03-17T05:29:18.464Z,1.24
2023-03-17T05:31:46.048Z,1.52
2023-03-17T05:34:12.940Z,1.68
2023-03-17T05:36:39.702Z,1.91
2023-03-17T05:39:07.155Z,2.02
2023-03-17T05:41:34.010Z,2.20
2023-03-17T05:44:01.167Z,2.14
2023-03-17T05:46:28.063Z,2.25
2023-03-17T05:48:54.890Z,2.26
2023-03-17T05:51:23.122Z,2.25
2023-03-17T05:53:49.895Z,2.35
2023-03-17T05:56:16.765Z,2.59
2023-03-17T05:58:43.535Z,2.64
2023-03-17T06:01:10.401Z,2.94
2023-03-17T06:03:38.723Z,3.20
2023-03-17T06:06:06.402Z,3.36
2023-03-17T06:08:33.213Z,3.62
2023-03-17T06:11:00.004Z,4.06
2023-03-17T06:13:27.152Z,4.13
2023-03-17T06:15:53.948Z,4.49
2023-03-17T06:18:20.904Z,5.07
2023-03-17T06:20:47.747Z,5.78
2023-03-17T06:23:14.693Z,6.26
2023-03-17T06:25:41.605Z,6.96
2023-03-17T06:28:08.498Z,7.14
2023-03-17T06:30:39.412Z,7.25
2023-03-17T06:33:08.298Z,7.84
2023-03-17T06:35:36.207Z,7.97
2023-03-17T06:38:03.609Z,8.37
2023-03-17T06:40:31.158Z,8.63
2023-03-17T06:42:58.449Z,9.03
2023-03-17T06:45:25.534Z,9.32
2023-03-17T06:47:52.686Z,9.12
2023-03-17T06:50:19.580Z,9.15
2023-03-17T06:52:47.013Z,9.42
2023-03-17T06:55:13.830Z,9.75
2023-03-17T06:57:40.664Z,9.93
2023-03-17T07:00:08.366Z,10.12
2023-03-17T07:02:35.384Z,10.33
2023-03-17T07:05:03.848Z,10.45
2023-03-17T07:07:30.864Z,10.41
2023-03-17T07:09:58.356Z,10.26
2023-03-17T07:12:25.107Z,9.84
2023-03-17T07:14:52.179Z,9.75
2023-03-17T07:17:19.767Z,9.84
2023-03-17T07:19:46.646Z,9.87
2023-03-17T07:22:13.538Z,9.80
2023-03-17T07:24:41.976Z,9.97
2023-03-17T07:27:09.141Z,10.01
2023-03-17T07:29:36.117Z,10.14
2023-03-17T07:32:04.275Z,10.18
2023-03-17T07:34:31.185Z,10.26
2023-03-17T07:36:58.009Z,10.33
2023-03-17T07:39:24.991Z,10.34
2023-03-17T07:41:55.692Z,10.47
2023-03-17T07:44:23.346Z,10.80
2023-03-17T07:46:51.630Z,11.06
2023-03-17T07:49:30.590Z,11.12
2023-03-17T07:52:05.922Z,11.17
2023-03-17T07:54:32.861Z,11.21
2023-03-17T07:56:59.779Z,11.33
2023-03-17T07:59:27.379Z,11.35
2023-03-17T08:01:54.331Z,11.45
2023-03-17T08:04:21.068Z,11.46
2023-03-17T08:06:47.901Z,11.32
2023-03-17T08:09:14.840Z,11.47
2023-03-17T08:11:41.728Z,11.69
2023-03-17T08:14:09.661Z,11.73
2023-03-17T08:16:36.821Z,11.69
2023-03-17T08:19:04.437Z,11.73
2023-03-17T08:21:32.076Z,11.49
2023-03-17T08:23:59.171Z,11.42
2023-03-17T08:26:27.034Z,11.42
2023-03-17T08:28:53.839Z,11.35
2023-03-17T08:31:22.819Z,11.38
2023-03-17T08:33:52.876Z,11.68
2023-03-17T08:36:21.065Z,11.79
2023-03-17T08:38:48.541Z,11.78
2023-03-17T08:41:18.393Z,11.84
2023-03-17T08:43:45.941Z,11.87
2023-03-17T08:46:19.689Z,11.77
2023-03-17T08:48:48.292Z,11.81
2023-03-17T08:51:18.568Z,11.74
2023-03-17T08:53:46.593Z,11.61
2023-03-17T08:56:14.160Z,11.51
2023-03-17T08:58:42.659Z,11.55
2023-03-17T09:01:13.356Z,11.73
2023-03-17T09:03:41.114Z,11.70
2023-03-17T09:06:11.695Z,11.85
2023-03-17T09:08:41.243Z,11.80
2023-03-17T09:11:10.487Z,11.80
2023-03-17T09:13:39.087Z,11.75
2023-03-17T09:16:08.226Z,11.72
2023-03-17T09:18:35.495Z,11.69
2023-03-17T09:21:05.238Z,11.68
2023-03-17T09:23:32.915Z,11.67
2023-03-17T09:26:00.181Z,11.72
2023-03-17T09:28:27.133Z,11.63
2023-03-17T09:31:03.543Z,11.63
2023-03-17T09:33:31.062Z,11.73
2023-03-17T09:35:58.200Z,11.83
2023-03-17T09:38:27.609Z,11.86
2023-03-17T09:41:16.185Z,11.76
2023-03-17T09:44:17.737Z,11.71
2023-03-17T09:47:14.770Z,11.59
2023-03-17T09:49:51.733Z,11.56
2023-03-17T09:52:31.236Z,11.63
2023-03-17T09:54:59.015Z,11.71
2023-03-17T09:57:40.272Z,11.77
2023-03-17T10:00:07.889Z,11.95
2023-03-17T10:02:39.928Z,12.01
2023-03-17T10:05:31.566Z,11.88
2023-03-17T10:08:30.144Z,12.05
2023-03-17T10:11:34.152Z,11.97
2023-03-17T10:14:21.675Z,11.93
2023-03-17T10:17:00.514Z,11.97
2023-03-17T10:19:42.348Z,11.79
2023-03-17T10:22:16.201Z,11.75
2023-03-17T10:24:47.236Z,11.75
2023-03-17T10:27:16.818Z,11.92
2023-03-17T10:29:43.596Z,11.90
2023-03-17T10:32:13.612Z,11.73
2023-03-17T10:34:41.680Z,11.74
2023-03-17T10:37:21.218Z,11.88
2023-03-17T10:39:52.310Z,11.93
2023-03-17T10:42:21.873Z,11.92
2023-03-17T10:44:58.901Z,11.93
2023-03-17T10:47:25.640Z,12.13
2023-03-17T10:49:52.623Z,12.16
2023-03-17T10:52:28.026Z,12.12
2023-03-17T10:54:54.828Z,12.11
2023-03-17T10:57:22.279Z,12.06
2023-03-17T10:59:54.364Z,11.96
2023-03-17T11:02:26.060Z,12.07
2023-03-17T11:04:59.880Z,12.06
2023-03-17T11:07:40.900Z,12.05
2023-03-17T11:10:23.785Z,11.97
2023-03-17T11:12:59.149Z,12.01
2023-03-17T11:15:34.439Z,11.89
2023-03-17T11:18:19.434Z,11.83
2023-03-17T11:21:02.133Z,11.81
2023-03-17T11:24:00.405Z,11.67
2023-03-17T11:26:48.000Z,11.69
2023-03-17T11:29:36.013Z,11.70
2023-03-17T11:32:28.424Z,11.83
2023-03-17T11:35:23.265Z,11.78
2023-03-17T11:38:20.666Z,11.93
2023-03-17T11:40:58.627Z,12.13
2023-03-17T11:43:37.654Z,12.07
2023-03-17T11:46:28.859Z,12.09
2023-03-17T11:49:12.515Z,12.11
2023-03-17T11:52:05.569Z,12.12
2023-03-17T11:54:40.590Z,12.17
2023-03-17T11:57:44.703Z,12.08
2023-03-17T12:00:19.338Z,11.80
2023-03-17T12:03:09.035Z,11.86
2023-03-17T12:05:37.315Z,11.92
2023-03-17T12:08:04.013Z,11.95
2023-03-17T12:10:51.743Z,11.82
2023-03-17T12:14:04.959Z,11.63
2023-03-17T12:16:43.974Z,11.64
2023-03-17T12:19:25.336Z,11.78
2023-03-17T12:22:22.794Z,11.85
2023-03-17T12:25:12.748Z,11.85
2023-03-17T12:27:58.469Z,11.90
2023-03-17T12:30:50.062Z,11.87
2023-03-17T12:33:20.514Z,11.91
2023-03-17T12:35:47.546Z,11.91
2023-03-17T12:38:35.913Z,11.85
2023-03-17T12:41:23.951Z,11.82
2023-03-17T12:44:11.988Z,11.85
2023-03-17T12:46:57.585Z,11.82
2023-03-17T12:50:05.006Z,11.78
2023-03-17T12:52:49.779Z,11.76
2023-03-17T12:55:18.604Z,11.71
2023-03-17T12:58:03.627Z,11.73
2023-03-17T13:00:34.226Z,11.77
2023-03-17T13:03:15.900Z,11.72
2023-03-17T13:05:47.489Z,11.79
2023-03-17T13:08:22.198Z,11.82
2023-03-17T13:10:49.162Z,11.83
2023-03-17T13:13:48.114Z,11.73
2023-03-17T13:16:29.982Z,11.70
2023-03-17T13:19:08.067Z,11.72
2023-03-17T13:21:36.466Z,11.81
2023-03-17T13:24:18.658Z,11.83
2023-03-17T13:26:53.633Z,11.98
2023-03-17T13:29:41.918Z,11.97
2023-03-17T13:32:26.865Z,11.97
2023-03-17T13:34:55.938Z,12.03
2023-03-17T13:37:25.684Z,12.00
2023-03-17T13:39:55.653Z,11.99
2023-03-17T13:42:41.224Z,11.87
2023-03-17T13:45:17.573Z,11.93
2023-03-17T13:47:45.950Z,11.97
2023-03-17T13:50:21.370Z,11.95
2023-03-17T13:52:54.605Z,11.95
2023-03-17T13:55:24.283Z,11.79
2023-03-17T13:58:15.546Z,11.85
2023-03-17T14:00:46.986Z,11.91
2023-03-17T14:03:40.842Z,11.82
2023-03-17T14:06:12.001Z,11.91
2023-03-17T14:08:46.137Z,11.96
2023-03-17T14:11:37.554Z,11.93
2023-03-17T14:14:33.373Z,11.91
2023-03-17T14:17:13.964Z,11.90
2023-03-17T14:19:43.152Z,11.95
2023-03-17T14:22:24.902Z,11.85
2023-03-17T14:24:53.789Z,11.92
2023-03-17T14:27:23.943Z,11.93
2023-03-17T14:29:52.407Z,11.97
2023-03-17T14:32:22.005Z,11.98
2023-03-17T14:34:57.196Z,12.00
2023-03-17T14:37:24.523Z,12.01
2023-03-17T14:39:57.718Z,12.02
2023-03-17T14:42:32.202Z,12.04
2023-03-17T14:45:05.456Z,11.99
2023-03-17T14:47:37.255Z,11.81
2023-03-17T14:50:05.025Z,12.06
2023-03-17T14:52:35.796Z,12.07
2023-03-17T14:55:03.238Z,12.03
2023-03-17T14:57:33.224Z,12.04
2023-03-17T15:00:02.521Z,12.04
2023-03-17T15:02:35.309Z,12.03
2023-03-17T15:05:17.149Z,12.02
2023-03-17T15:07:44.197Z,12.07
2023-03-17T15:10:22.433Z,12.02
2023-03-17T15:12:49.441Z,12.04
2023-03-17T15:15:19.283Z,12.04
2023-03-17T15:17:51.219Z,12.03
2023-03-17T15:20:19.876Z,12.06
2023-03-17T15:23:03.098Z,12.03
2023-03-17T15:25:39.597Z,12.09
2023-03-17T15:28:18.304Z,12.03
2023-03-17T15:30:48.358Z,12.09
2023-03-17T15:33:30.623Z,12.04
2023-03-17T15:36:00.150Z,12.13
2023-03-17T15:38:29.728Z,12.07
2023-03-17T15:40:56.973Z,12.07
2023-03-17T15:43:24.254Z,12.08
2023-03-17T15:46:21.662Z,11.98
2023-03-17T15:48:48.557Z,11.98
2023-03-17T15:51:16.464Z,11.94
2023-03-17T15:53:43.258Z,11.86
2023-03-17T15:56:21.666Z,11.77
2023-03-17T15:58:51.530Z,11.76
2023-03-17T16:01:19.035Z,11.72
2023-03-17T16:03:47.400Z,11.64
2023-03-17T16:06:19.878Z,11.66
2023-03-17T16:08:46.880Z,11.63
2023-03-17T16:11:28.182Z,11.53
2023-03-17T16:13:59.791Z,11.50
2023-03-17T16:16:39.728Z,11.46
2023-03-17T16:19:10.365Z,11.49
2023-03-17T16:21:37.461Z,11.46
2023-03-17T16:24:04.563Z,11.40
2023-03-17T16:26:31.406Z,11.35
2023-03-17T16:28:58.486Z,11.31
2023-03-17T16:31:31.507Z,11.21
2023-03-17T16:34:00.074Z,11.18
2023-03-17T16:36:27.233Z,11.12
2023-03-17T16:38:54.271Z,11.10
2023-03-17T16:41:24.123Z,11.05
2023-03-17T16:43:59.382Z,10.99
2023-03-17T16:46:28.163Z,10.95
2023-03-17T16:48:56.262Z,10.90
2023-03-17T16:51:25.051Z,10.88
2023-03-17T16:53:51.876Z,10.83
2023-03-17T16:56:23.088Z,10.77
2023-03-17T16:58:50.219Z,10.73
2023-03-17T17:01:23.535Z,10.67
2023-03-17T17:03:50.252Z,10.44
2023-03-17T17:06:18.455Z,10.57
2023-03-17T17:08:46.345Z,10.54
2023-03-17T17:11:14.654Z,10.52
2023-03-17T17:13:43.526Z,10.49
2023-03-17T17:16:23.605Z,10.41
2023-03-17T17:18:53.062Z,10.39
2023-03-17T17:21:19.877Z,10.36
2023-03-17T17:23:46.818Z,10.33
2023-03-17T17:26:13.637Z,10.29
2023-03-17T17:28:40.511Z,10.24
2023-03-17T17:31:08.473Z,10.22
2023-03-17T17:33:36.436Z,10.21
2023-03-17T17:36:11.749Z,10.16
2023-03-17T17:38:38.530Z,10.13
2023-03-17T17:41:09.056Z,10.10
2023-03-17T17:43:36.131Z,10.05
2023-03-17T17:46:03.006Z,10.04
2023-03-17T17:48:30.127Z,9.99
2023-03-17T17:50:57.481Z,9.98
2023-03-17T17:53:24.730Z,9.92
2023-03-17T17:55:52.139Z,9.91
2023-03-17T17:58:22.711Z,9.84
2023-03-17T18:00:50.188Z,9.82
2023-03-17T18:03:17.067Z,9.79
2023-03-17T18:05:44.376Z,9.72
2023-03-17T18:08:13.586Z,9.69
2023-03-17T18:10:40.474Z,9.64
2023-03-17T18:13:07.353Z,9.56
2023-03-17T18:15:34.319Z,9.44
2023-03-17T18:18:01.170Z,9.33
2023-03-17T18:20:28.730Z,9.28
2023-03-17T18:22:55.922Z,9.23
2023-03-17T18:25:22.745Z,9.16
2023-03-17T18:27:49.621Z,9.09
2023-03-17T18:30:28.219Z,8.92
2023-03-17T18:33:00.646Z,8.87
2023-03-17T18:35:28.756Z,8.80
2023-03-17T18:37:57.748Z,8.77
2023-03-17T18:40:26.023Z,8.72
2023-03-17T18:42:53.026Z,8.63
2023-03-17T18:45:21.396Z,8.59
2023-03-17T18:47:48.120Z,8.54
2023-03-17T18:50:16.685Z,8.50
2023-03-17T18:52:44.987Z,8.47
2023-03-17T18:55:13.211Z,8.45
2023-03-17T18:57:43.139Z,8.40
2023-03-17T19:00:12.053Z,8.35
2023-03-17T19:02:39.321Z,8.30
2023-03-17T19:05:07.573Z,8.28
2023-03-17T19:07:34.539Z,8.23
2023-03-17T19:10:01.367Z,8.17
2023-03-17T19:12:28.172Z,8.11
2023-03-17T19:14:55.105Z,8.08
2023-03-17T19:17:22.776Z,8.06
2023-03-17T19:19:50.590Z,8.05
2023-03-17T19:22:17.899Z,7.97
2023-03-17T19:24:45.787Z,7.95
2023-03-17T19:27:12.690Z,7.90
2023-03-17T19:29:39.420Z,7.88
2023-03-17T19:32:06.560Z,7.85
2023-03-17T19:34:33.467Z,7.79
2023-03-17T19:37:02.510Z,7.75
2023-03-17T19:39:31.398Z,7.73
2023-03-17T19:41:59.358Z,7.62
2023-03-17T19:44:26.706Z,7.61
2023-03-17T19:46:53.643Z,7.58
2023-03-17T19:49:21.302Z,7.55
2023-03-17T19:51:49.148Z,7.53
2023-03-17T19:54:16.673Z,7.52
2023-03-17T19:56:43.533Z,7.45
2023-03-17T19:59:10.450Z,7.40
2023-03-17T20:01:38.224Z,7.36
2023-03-17T20:04:07.129Z,7.32
2023-03-17T20:06:34.821Z,7.27
2023-03-17T20:09:04.412Z,7.23
2023-03-17T20:11:34.106Z,7.21
2023-03-17T20:14:02.453Z,7.19
2023-03-17T20:16:31.946Z,7.17
2023-03-17T20:18:58.856Z,7.15
2023-03-17T20:21:25.943Z,7.13
2023-03-17T20:23:53.026Z,7.10
2023-03-17T20:26:21.061Z,7.10
2023-03-17T20:28:48.492Z,7.09
2023-03-17T20:31:15.345Z,7.02
2023-03-17T20:33:42.263Z,7.00
2023-03-17T20:36:09.851Z,6.98
2023-03-17T20:38:39.357Z,6.96
2023-03-17T20:41:09.667Z,6.91
2023-03-17T20:43:37.596Z,6.89
2023-03-17T20:46:08.568Z,6.87
2023-03-17T20:48:38.518Z,6.82
2023-03-17T20:51:06.469Z,6.81
2023-03-17T20:53:34.386Z,6.76
2023-03-17T20:56:01.180Z,6.75
2023-03-17T20:58:29.098Z,6.68
2023-03-17T21:00:58.347Z,6.65
2023-03-17T21:03:25.406Z,6.61
2023-03-17T21:05:53.477Z,6.59
2023-03-17T21:08:20.224Z,6.61
2023-03-17T21:10:46.916Z,6.58
2023-03-17T21:13:13.765Z,6.53
2023-03-17T21:15:41.173Z,6.50
2023-03-17T21:18:07.938Z,6.48
2023-03-17T21:20:34.763Z,6.47
2023-03-17T21:23:04.693Z,6.43
2023-03-17T21:25:31.558Z,6.36
2023-03-17T21:27:58.436Z,6.34
2023-03-17T21:30:25.219Z,6.33
2023-03-17T21:32:53.716Z,6.29
2023-03-17T21:35:20.932Z,6.25
2023-03-17T21:37:47.730Z,6.24
2023-03-17T21:40:15.678Z,6.19
2023-03-17T21:42:42.896Z,6.15
2023-03-17T21:45:09.830Z,6.13
2023-03-17T21:47:37.036Z,6.14
2023-03-17T21:50:05.191Z,6.11
2023-03-17T21:52:32.994Z,6.09
2023-03-17T21:54:59.745Z,6.08
2023-03-17T21:57:27.794Z,6.05
2023-03-17T21:59:54.788Z,6.00
2023-03-17T22:02:23.115Z,5.97
2023-03-17T22:04:50.232Z,5.95
2023-03-17T22:07:17.932Z,5.94
2023-03-17T22:09:45.316Z,5.94
2023-03-17T22:12:13.574Z,5.92
2023-03-17T22:14:40.640Z,5.88
2023-03-17T22:17:08.419Z,5.88
2023-03-17T22:19:35.365Z,5.86
2023-03-17T22:22:02.687Z,5.85
2023-03-17T22:24:29.833Z,5.82
2023-03-17T22:26:56.746Z,5.78
2023-03-17T22:29:23.553Z,5.80
2023-03-17T22:31:50.949Z,5.76
2023-03-17T22:34:18.285Z,5.71
2023-03-17T22:36:45.644Z,5.73
2023-03-17T22:39:12.437Z,5.70
2023-03-17T22:41:39.460Z,5.69
2023-03-17T22:44:09.094Z,5.68
2023-03-17T22:46:37.548Z,5.71
2023-03-17T22:49:05.491Z,5.64
2023-03-17T22:51:32.501Z,5.64
2023-03-17T22:53:59.338Z,5.59
2023-03-17T22:56:26.953Z,5.60
2023-03-17T22:58:54.780Z,5.55
2023-03-17T23:01:25.220Z,5.48
2023-03-17T23:03:53.807Z,5.44
2023-03-17T23:06:20.827Z,5.47
2023-03-17T23:08:48.037Z,5.42
2023-03-17T23:11:18.672Z,5.41
2023-03-17T23:13:47.371Z,5.37
2023-03-17T23:16:14.890Z,5.39
2023-03-17T23:18:44.643Z,5.37
2023-03-17T23:21:22.851Z,5.35
2023-03-17T23:23:49.912Z,5.36
2023-03-17T23:26:16.983Z,5.35
2023-03-17T23:28:44.987Z,5.33
2023-03-17T23:31:12.233Z,5.30
2023-03-17T23:33:39.813Z,5.32
2023-03-17T23:36:09.212Z,5.32
2023-03-17T23:38:36.712Z,5.32
2023-03-17T23:41:03.726Z,5.30
2023-03-17T23:43:30.971Z,5.24
2023-03-17T23:45:58.341Z,5.22
2023-03-17T23:48:25.149Z,5.20
2023-03-17T23:50:53.224Z,5.19
2023-03-17T23:53:20.814Z,5.22
2023-03-17T23:55:47.886Z,5.21
2023-03-17T23:58:15.636Z,5.20
